sensor_id;sensor_type;location;lat;lon;timestamp;P1;durP1;ratioP1;P2;durP2;ratioP2
60908;SDS011;46780;48.128;-1.704;2023-04-01T00:02:13;21.65;;;3.00;;
60908;SDS011;46780;48.128;-1.704;2023-04-01T00:04:39;23.73;;;3.95;;
60908;SDS011;46780;48.128;-1.704;2023-04-01T00:07:05;24.50;;;3.17;;
60908;SDS011;46780;48.128;-1.704;2023-04-01T00:09:32;22.20;;;3.15;;
60908;SDS011;46780;48.128;-1.704;2023-04-01T00:12:00;19.38;;;2.83;;
60908;SDS011;46780;48.128;-1.704;2023-04-01T00:14:26;20.45;;;3.00;;
60908;SDS011;46780;48.128;-1.704;2023-04-01T00:16:53;22.20;;;3.60;;
60908;SDS011;46780;48.128;-1.704;2023-04-01T00:19:19;25.35;;;3.50;;
60908;SDS011;46780;48.128;-1.704;2023-04-01T00:21:46;25.70;;;3.40;;
60908;SDS011;46780;48.128;-1.704;2023-04-01T00:24:12;24.95;;;3.80;;
60908;SDS011;46780;48.128;-1.704;2023-04-01T00:26:38;21.42;;;3.47;;
60908;SDS011;46780;48.128;-1.704;2023-04-01T00:29:06;25.20;;;3.22;;
60908;SDS011;46780;48.128;-1.704;2023-04-01T00:31:33;21.10;;;3.38;;
60908;SDS011;46780;48.128;-1.704;2023-04-01T00:33:59;23.10;;;3.35;;
60908;SDS011;46780;48.128;-1.704;2023-04-01T00:36:26;22.98;;;3.50;;
60908;SDS011;46780;48.128;-1.704;2023-04-01T00:38:52;28.05;;;3.42;;
60908;SDS011;46780;48.128;-1.704;2023-04-01T00:41:19;27.65;;;3.80;;
60908;SDS011;46780;48.128;-1.704;2023-04-01T00:43:46;23.23;;;3.20;;
60908;SDS011;46780;48.128;-1.704;2023-04-01T00:46:15;23.25;;;3.20;;
60908;SDS011;46780;48.128;-1.704;2023-04-01T00:48:43;28.40;;;3.70;;
60908;SDS011;46780;48.128;-1.704;2023-04-01T00:51:15;26.58;;;3.35;;
60908;SDS011;46780;48.128;-1.704;2023-04-01T00:53:47;21.45;;;3.33;;
60908;SDS011;46780;48.128;-1.704;2023-04-01T00:58:46;29.15;;;3.53;;
60908;SDS011;46780;48.128;-1.704;2023-04-01T01:01:16;22.33;;;2.97;;
60908;SDS011;46780;48.128;-1.704;2023-04-01T01:03:43;22.75;;;3.20;;
60908;SDS011;46780;48.128;-1.704;2023-04-01T01:06:11;24.38;;;3.63;;
60908;SDS011;46780;48.128;-1.704;2023-04-01T01:08:57;25.83;;;3.57;;
60908;SDS011;46780;48.128;-1.704;2023-04-01T01:11:36;25.00;;;3.72;;
60908;SDS011;46780;48.128;-1.704;2023-04-01T01:14:09;21.42;;;3.22;;
60908;SDS011;46780;48.128;-1.704;2023-04-01T01:16:48;24.58;;;3.40;;
60908;SDS011;46780;48.128;-1.704;2023-04-01T01:19:25;27.02;;;4.07;;
60908;SDS011;46780;48.128;-1.704;2023-04-01T01:22:17;23.75;;;3.25;;
60908;SDS011;46780;48.128;-1.704;2023-04-01T01:24:56;23.15;;;2.90;;
60908;SDS011;46780;48.128;-1.704;2023-04-01T01:27:36;18.77;;;2.85;;
60908;SDS011;46780;48.128;-1.704;2023-04-01T01:32:44;19.88;;;2.72;;
60908;SDS011;46780;48.128;-1.704;2023-04-01T01:35:29;17.60;;;2.72;;
60908;SDS011;46780;48.128;-1.704;2023-04-01T01:38:00;21.33;;;2.65;;
60908;SDS011;46780;48.128;-1.704;2023-04-01T01:40:30;20.33;;;2.83;;
60908;SDS011;46780;48.128;-1.704;2023-04-01T01:42:59;20.17;;;2.65;;
60908;SDS011;46780;48.128;-1.704;2023-04-01T01:45:30;17.73;;;2.50;;
60908;SDS011;46780;48.128;-1.704;2023-04-01T01:48:01;20.43;;;3.43;;
60908;SDS011;46780;48.128;-1.704;2023-04-01T01:50:31;18.30;;;3.13;;
60908;SDS011;46780;48.128;-1.704;2023-04-01T01:53:02;19.50;;;2.90;;
60908;SDS011;46780;48.128;-1.704;2023-04-01T01:55:30;18.83;;;3.10;;
60908;SDS011;46780;48.128;-1.704;2023-04-01T01:57:57;20.40;;;2.80;;
60908;SDS011;46780;48.128;-1.704;2023-04-01T02:00:27;19.50;;;2.50;;
60908;SDS011;46780;48.128;-1.704;2023-04-01T02:02:54;19.38;;;2.85;;
60908;SDS011;46780;48.128;-1.704;2023-04-01T02:05:23;18.08;;;2.88;;
60908;SDS011;46780;48.128;-1.704;2023-04-01T02:07:54;17.25;;;2.53;;
60908;SDS011;46780;48.128;-1.704;2023-04-01T02:10:25;18.65;;;2.38;;
60908;SDS011;46780;48.128;-1.704;2023-04-01T02:12:54;17.10;;;2.38;;
60908;SDS011;46780;48.128;-1.704;2023-04-01T02:15:25;17.92;;;2.88;;
60908;SDS011;46780;48.128;-1.704;2023-04-01T02:17:53;14.45;;;2.30;;
60908;SDS011;46780;48.128;-1.704;2023-04-01T02:20:20;18.45;;;3.05;;
60908;SDS011;46780;48.128;-1.704;2023-04-01T02:22:49;13.57;;;2.40;;
60908;SDS011;46780;48.128;-1.704;2023-04-01T02:25:20;16.98;;;2.45;;
60908;SDS011;46780;48.128;-1.704;2023-04-01T02:27:50;19.40;;;2.65;;
60908;SDS011;46780;48.128;-1.704;2023-04-01T02:30:19;16.60;;;2.50;;
60908;SDS011;46780;48.128;-1.704;2023-04-01T02:32:46;13.60;;;2.95;;
60908;SDS011;46780;48.128;-1.704;2023-04-01T02:35:15;17.08;;;2.47;;
60908;SDS011;46780;48.128;-1.704;2023-04-01T02:37:42;18.15;;;2.60;;
60908;SDS011;46780;48.128;-1.704;2023-04-01T02:40:12;13.20;;;2.50;;
60908;SDS011;46780;48.128;-1.704;2023-04-01T02:42:41;17.73;;;2.45;;
60908;SDS011;46780;48.128;-1.704;2023-04-01T02:45:08;16.42;;;2.47;;
60908;SDS011;46780;48.128;-1.704;2023-04-01T02:47:35;14.07;;;2.35;;
60908;SDS011;46780;48.128;-1.704;2023-04-01T02:50:02;17.40;;;2.80;;
60908;SDS011;46780;48.128;-1.704;2023-04-01T02:52:29;15.90;;;2.42;;
60908;SDS011;46780;48.128;-1.704;2023-04-01T02:54:56;17.17;;;2.58;;
60908;SDS011;46780;48.128;-1.704;2023-04-01T02:57:22;16.58;;;2.47;;
60908;SDS011;46780;48.128;-1.704;2023-04-01T02:59:51;14.77;;;2.42;;
60908;SDS011;46780;48.128;-1.704;2023-04-01T03:02:17;14.23;;;2.45;;
60908;SDS011;46780;48.128;-1.704;2023-04-01T03:04:44;16.90;;;2.50;;
60908;SDS011;46780;48.128;-1.704;2023-04-01T03:07:10;16.23;;;2.50;;
60908;SDS011;46780;48.128;-1.704;2023-04-01T03:09:37;16.52;;;2.85;;
60908;SDS011;46780;48.128;-1.704;2023-04-01T03:12:04;15.27;;;2.42;;
60908;SDS011;46780;48.128;-1.704;2023-04-01T03:14:31;14.52;;;2.08;;
60908;SDS011;46780;48.128;-1.704;2023-04-01T03:16:59;16.10;;;2.63;;
60908;SDS011;46780;48.128;-1.704;2023-04-01T03:19:25;16.35;;;2.35;;
60908;SDS011;46780;48.128;-1.704;2023-04-01T03:21:52;16.25;;;2.65;;
60908;SDS011;46780;48.128;-1.704;2023-04-01T03:24:19;17.05;;;2.30;;
60908;SDS011;46780;48.128;-1.704;2023-04-01T03:26:46;20.48;;;2.72;;
60908;SDS011;46780;48.128;-1.704;2023-04-01T03:29:12;14.02;;;2.67;;
60908;SDS011;46780;48.128;-1.704;2023-04-01T03:31:38;18.30;;;2.80;;
60908;SDS011;46780;48.128;-1.704;2023-04-01T03:34:06;14.05;;;2.67;;
60908;SDS011;46780;48.128;-1.704;2023-04-01T03:36:33;16.70;;;2.63;;
60908;SDS011;46780;48.128;-1.704;2023-04-01T03:38:59;13.10;;;2.42;;
60908;SDS011;46780;48.128;-1.704;2023-04-01T03:41:26;18.75;;;2.75;;
60908;SDS011;46780;48.128;-1.704;2023-04-01T03:43:53;16.55;;;2.45;;
60908;SDS011;46780;48.128;-1.704;2023-04-01T03:46:19;13.85;;;2.25;;
60908;SDS011;46780;48.128;-1.704;2023-04-01T03:48:46;18.33;;;2.63;;
60908;SDS011;46780;48.128;-1.704;2023-04-01T03:51:14;17.40;;;2.78;;
60908;SDS011;46780;48.128;-1.704;2023-04-01T03:53:40;14.75;;;2.42;;
60908;SDS011;46780;48.128;-1.704;2023-04-01T03:56:07;14.55;;;2.97;;
60908;SDS011;46780;48.128;-1.704;2023-04-01T03:58:34;17.15;;;2.45;;
60908;SDS011;46780;48.128;-1.704;2023-04-01T04:01:02;21.30;;;2.92;;
60908;SDS011;46780;48.128;-1.704;2023-04-01T04:03:28;17.33;;;2.45;;
60908;SDS011;46780;48.128;-1.704;2023-04-01T04:05:55;14.05;;;2.22;;
60908;SDS011;46780;48.128;-1.704;2023-04-01T04:08:22;14.57;;;2.42;;
60908;SDS011;46780;48.128;-1.704;2023-04-01T04:10:54;19.83;;;2.70;;
60908;SDS011;46780;48.128;-1.704;2023-04-01T04:13:20;16.33;;;2.40;;
60908;SDS011;46780;48.128;-1.704;2023-04-01T04:15:47;18.08;;;2.30;;
60908;SDS011;46780;48.128;-1.704;2023-04-01T04:18:13;15.50;;;2.65;;
60908;SDS011;46780;48.128;-1.704;2023-04-01T04:20:43;17.35;;;2.40;;
60908;SDS011;46780;48.128;-1.704;2023-04-01T04:23:10;19.10;;;2.87;;
60908;SDS011;46780;48.128;-1.704;2023-04-01T04:25:37;19.92;;;2.40;;
60908;SDS011;46780;48.128;-1.704;2023-04-01T04:28:04;14.75;;;2.50;;
60908;SDS011;46780;48.128;-1.704;2023-04-01T04:30:30;13.25;;;2.10;;
60908;SDS011;46780;48.128;-1.704;2023-04-01T04:32:57;19.20;;;2.20;;
60908;SDS011;46780;48.128;-1.704;2023-04-01T04:35:23;17.60;;;2.30;;
60908;SDS011;46780;48.128;-1.704;2023-04-01T04:37:49;17.02;;;2.20;;
60908;SDS011;46780;48.128;-1.704;2023-04-01T04:40:16;15.18;;;2.17;;
60908;SDS011;46780;48.128;-1.704;2023-04-01T04:42:44;13.88;;;2.55;;
60908;SDS011;46780;48.128;-1.704;2023-04-01T04:45:10;21.67;;;2.40;;
60908;SDS011;46780;48.128;-1.704;2023-04-01T04:47:37;16.05;;;2.42;;
60908;SDS011;46780;48.128;-1.704;2023-04-01T04:50:04;15.40;;;2.55;;
60908;SDS011;46780;48.128;-1.704;2023-04-01T04:52:31;18.40;;;2.63;;
60908;SDS011;46780;48.128;-1.704;2023-04-01T04:54:57;18.70;;;2.45;;
60908;SDS011;46780;48.128;-1.704;2023-04-01T04:57:24;15.00;;;2.17;;
60908;SDS011;46780;48.128;-1.704;2023-04-01T04:59:52;14.88;;;2.15;;
60908;SDS011;46780;48.128;-1.704;2023-04-01T05:02:18;21.35;;;2.63;;
60908;SDS011;46780;48.128;-1.704;2023-04-01T05:04:44;15.38;;;2.25;;
60908;SDS011;46780;48.128;-1.704;2023-04-01T05:07:11;18.08;;;2.50;;
60908;SDS011;46780;48.128;-1.704;2023-04-01T05:09:37;16.90;;;2.42;;
60908;SDS011;46780;48.128;-1.704;2023-04-01T05:12:04;17.63;;;2.53;;
60908;SDS011;46780;48.128;-1.704;2023-04-01T05:14:31;15.20;;;2.83;;
60908;SDS011;46780;48.128;-1.704;2023-04-01T05:16:58;15.85;;;2.05;;
60908;SDS011;46780;48.128;-1.704;2023-04-01T05:19:25;15.20;;;2.33;;
60908;SDS011;46780;48.128;-1.704;2023-04-01T05:21:51;18.48;;;2.40;;
60908;SDS011;46780;48.128;-1.704;2023-04-01T05:24:18;16.35;;;2.20;;
60908;SDS011;46780;48.128;-1.704;2023-04-01T05:26:44;13.05;;;2.28;;
60908;SDS011;46780;48.128;-1.704;2023-04-01T05:29:11;17.40;;;2.83;;
60908;SDS011;46780;48.128;-1.704;2023-04-01T05:31:37;13.13;;;2.33;;
60908;SDS011;46780;48.128;-1.704;2023-04-01T05:34:05;16.90;;;2.28;;
60908;SDS011;46780;48.128;-1.704;2023-04-01T05:36:31;14.82;;;1.90;;
60908;SDS011;46780;48.128;-1.704;2023-04-01T05:38:58;15.35;;;2.33;;
60908;SDS011;46780;48.128;-1.704;2023-04-01T05:41:24;16.48;;;2.25;;
60908;SDS011;46780;48.128;-1.704;2023-04-01T05:43:51;15.70;;;1.92;;
60908;SDS011;46780;48.128;-1.704;2023-04-01T05:46:17;19.27;;;2.53;;
60908;SDS011;46780;48.128;-1.704;2023-04-01T05:48:44;19.40;;;2.10;;
60908;SDS011;46780;48.128;-1.704;2023-04-01T05:51:13;15.77;;;2.03;;
60908;SDS011;46780;48.128;-1.704;2023-04-01T05:53:40;20.85;;;2.20;;
60908;SDS011;46780;48.128;-1.704;2023-04-01T05:56:07;16.25;;;2.10;;
60908;SDS011;46780;48.128;-1.704;2023-04-01T05:58:34;17.17;;;2.53;;
60908;SDS011;46780;48.128;-1.704;2023-04-01T06:01:01;11.80;;;2.15;;
60908;SDS011;46780;48.128;-1.704;2023-04-01T06:03:28;16.23;;;2.30;;
60908;SDS011;46780;48.128;-1.704;2023-04-01T06:05:54;19.63;;;2.70;;
60908;SDS011;46780;48.128;-1.704;2023-04-01T06:08:23;12.30;;;2.30;;
60908;SDS011;46780;48.128;-1.704;2023-04-01T06:10:57;18.13;;;2.53;;
60908;SDS011;46780;48.128;-1.704;2023-04-01T06:13:34;21.30;;;2.65;;
60908;SDS011;46780;48.128;-1.704;2023-04-01T06:16:35;21.63;;;2.47;;
60908;SDS011;46780;48.128;-1.704;2023-04-01T06:19:15;19.13;;;2.65;;
60908;SDS011;46780;48.128;-1.704;2023-04-01T06:22:07;17.98;;;2.50;;
60908;SDS011;46780;48.128;-1.704;2023-04-01T06:24:55;20.80;;;2.35;;
60908;SDS011;46780;48.128;-1.704;2023-04-01T06:27:46;15.10;;;2.30;;
60908;SDS011;46780;48.128;-1.704;2023-04-01T06:30:25;21.05;;;2.85;;
60908;SDS011;46780;48.128;-1.704;2023-04-01T06:33:06;14.75;;;2.72;;
60908;SDS011;46780;48.128;-1.704;2023-04-01T06:35:54;15.75;;;2.25;;
60908;SDS011;46780;48.128;-1.704;2023-04-01T06:41:11;18.90;;;2.15;;
60908;SDS011;46780;48.128;-1.704;2023-04-01T06:44:13;18.40;;;2.58;;
60908;SDS011;46780;48.128;-1.704;2023-04-01T06:46:44;21.88;;;2.50;;
60908;SDS011;46780;48.128;-1.704;2023-04-01T06:49:26;19.17;;;2.38;;
60908;SDS011;46780;48.128;-1.704;2023-04-01T06:52:02;19.88;;;2.55;;
60908;SDS011;46780;48.128;-1.704;2023-04-01T06:54:40;19.67;;;2.28;;
60908;SDS011;46780;48.128;-1.704;2023-04-01T06:57:15;18.48;;;2.22;;
60908;SDS011;46780;48.128;-1.704;2023-04-01T06:59:47;22.23;;;2.67;;
60908;SDS011;46780;48.128;-1.704;2023-04-01T07:02:18;26.33;;;3.00;;
60908;SDS011;46780;48.128;-1.704;2023-04-01T07:04:51;20.65;;;2.90;;
60908;SDS011;46780;48.128;-1.704;2023-04-01T07:07:21;21.35;;;2.70;;
60908;SDS011;46780;48.128;-1.704;2023-04-01T07:09:55;20.27;;;3.00;;
60908;SDS011;46780;48.128;-1.704;2023-04-01T07:12:28;19.65;;;2.55;;
60908;SDS011;46780;48.128;-1.704;2023-04-01T07:15:05;25.60;;;3.00;;
60908;SDS011;46780;48.128;-1.704;2023-04-01T07:17:41;20.50;;;2.85;;
60908;SDS011;46780;48.128;-1.704;2023-04-01T07:20:11;17.80;;;2.22;;
60908;SDS011;46780;48.128;-1.704;2023-04-01T07:22:43;21.15;;;2.95;;
60908;SDS011;46780;48.128;-1.704;2023-04-01T07:25:13;19.55;;;2.53;;
60908;SDS011;46780;48.128;-1.704;2023-04-01T07:27:42;18.98;;;2.67;;
60908;SDS011;46780;48.128;-1.704;2023-04-01T07:30:13;19.45;;;2.72;;
60908;SDS011;46780;48.128;-1.704;2023-04-01T07:32:42;20.83;;;2.65;;
60908;SDS011;46780;48.128;-1.704;2023-04-01T07:35:16;17.67;;;2.70;;
60908;SDS011;46780;48.128;-1.704;2023-04-01T07:37:53;21.38;;;3.15;;
60908;SDS011;46780;48.128;-1.704;2023-04-01T07:40:31;20.63;;;2.85;;
60908;SDS011;46780;48.128;-1.704;2023-04-01T07:46:07;26.02;;;5.75;;
60908;SDS011;46780;48.128;-1.704;2023-04-01T07:48:44;24.52;;;6.75;;
60908;SDS011;46780;48.128;-1.704;2023-04-01T07:51:17;21.85;;;2.72;;
60908;SDS011;46780;48.128;-1.704;2023-04-01T07:53:48;20.90;;;2.88;;
60908;SDS011;46780;48.128;-1.704;2023-04-01T07:56:23;21.80;;;3.05;;
60908;SDS011;46780;48.128;-1.704;2023-04-01T07:58:59;20.27;;;2.70;;
60908;SDS011;46780;48.128;-1.704;2023-04-01T08:01:33;20.55;;;2.67;;
60908;SDS011;46780;48.128;-1.704;2023-04-01T08:04:11;19.40;;;2.85;;
60908;SDS011;46780;48.128;-1.704;2023-04-01T08:06:46;21.65;;;3.10;;
60908;SDS011;46780;48.128;-1.704;2023-04-01T08:09:20;15.55;;;2.80;;
60908;SDS011;46780;48.128;-1.704;2023-04-01T08:11:58;18.02;;;2.63;;
60908;SDS011;46780;48.128;-1.704;2023-04-01T08:14:32;21.85;;;3.15;;
60908;SDS011;46780;48.128;-1.704;2023-04-01T08:17:10;18.30;;;2.53;;
60908;SDS011;46780;48.128;-1.704;2023-04-01T08:19:48;13.32;;;2.47;;
60908;SDS011;46780;48.128;-1.704;2023-04-01T08:22:27;18.45;;;3.08;;
60908;SDS011;46780;48.128;-1.704;2023-04-01T08:27:28;19.70;;;2.80;;
60908;SDS011;46780;48.128;-1.704;2023-04-01T08:30:04;17.05;;;2.70;;
60908;SDS011;46780;48.128;-1.704;2023-04-01T08:32:42;17.30;;;2.92;;
60908;SDS011;46780;48.128;-1.704;2023-04-01T08:35:14;19.58;;;3.05;;
60908;SDS011;46780;48.128;-1.704;2023-04-01T08:37:49;23.27;;;2.83;;
60908;SDS011;46780;48.128;-1.704;2023-04-01T08:40:32;20.88;;;2.65;;
60908;SDS011;46780;48.128;-1.704;2023-04-01T08:43:12;24.17;;;3.10;;
60908;SDS011;46780;48.128;-1.704;2023-04-01T08:45:56;16.90;;;2.45;;
60908;SDS011;46780;48.128;-1.704;2023-04-01T08:48:33;21.13;;;2.80;;
60908;SDS011;46780;48.128;-1.704;2023-04-01T08:51:20;16.00;;;2.80;;
60908;SDS011;46780;48.128;-1.704;2023-04-01T08:57:01;19.63;;;2.55;;
60908;SDS011;46780;48.128;-1.704;2023-04-01T08:59:42;20.63;;;2.75;;
60908;SDS011;46780;48.128;-1.704;2023-04-01T09:05:20;20.67;;;3.00;;
60908;SDS011;46780;48.128;-1.704;2023-04-01T09:08:03;19.05;;;2.70;;
60908;SDS011;46780;48.128;-1.704;2023-04-01T09:10:50;18.92;;;2.83;;
60908;SDS011;46780;48.128;-1.704;2023-04-01T09:17:06;16.35;;;2.47;;
60908;SDS011;46780;48.128;-1.704;2023-04-01T09:19:49;13.98;;;2.28;;
60908;SDS011;46780;48.128;-1.704;2023-04-01T09:28:28;15.40;;;2.47;;
60908;SDS011;46780;48.128;-1.704;2023-04-01T09:31:15;17.60;;;2.42;;
60908;SDS011;46780;48.128;-1.704;2023-04-01T09:37:00;13.25;;;2.50;;
60908;SDS011;46780;48.128;-1.704;2023-04-01T09:39:47;21.47;;;2.60;;
60908;SDS011;46780;48.128;-1.704;2023-04-01T09:42:35;23.42;;;3.15;;
60908;SDS011;46780;48.128;-1.704;2023-04-01T09:45:09;17.33;;;2.92;;
60908;SDS011;46780;48.128;-1.704;2023-04-01T09:47:51;15.10;;;2.60;;
60908;SDS011;46780;48.128;-1.704;2023-04-01T09:50:29;16.55;;;3.00;;
60908;SDS011;46780;48.128;-1.704;2023-04-01T09:53:10;19.45;;;2.67;;
60908;SDS011;46780;48.128;-1.704;2023-04-01T09:55:52;19.80;;;2.53;;
60908;SDS011;46780;48.128;-1.704;2023-04-01T10:02:08;17.15;;;3.10;;
60908;SDS011;46780;48.128;-1.704;2023-04-01T10:08:15;13.90;;;2.33;;
60908;SDS011;46780;48.128;-1.704;2023-04-01T10:11:02;11.75;;;2.40;;
60908;SDS011;46780;48.128;-1.704;2023-04-01T10:20:02;13.15;;;2.33;;
60908;SDS011;46780;48.128;-1.704;2023-04-01T10:28:50;12.07;;;2.13;;
60908;SDS011;46780;48.128;-1.704;2023-04-01T10:34:44;12.48;;;1.73;;
60908;SDS011;46780;48.128;-1.704;2023-04-01T10:37:47;10.50;;;2.03;;
60908;SDS011;46780;48.128;-1.704;2023-04-01T10:41:01;11.02;;;2.30;;
60908;SDS011;46780;48.128;-1.704;2023-04-01T10:43:58;10.63;;;2.10;;
60908;SDS011;46780;48.128;-1.704;2023-04-01T10:46:58;14.75;;;2.25;;
60908;SDS011;46780;48.128;-1.704;2023-04-01T10:53:04;10.57;;;1.80;;
60908;SDS011;46780;48.128;-1.704;2023-04-01T10:56:05;9.55;;;1.80;;
60908;SDS011;46780;48.128;-1.704;2023-04-01T11:02:09;13.98;;;2.00;;
60908;SDS011;46780;48.128;-1.704;2023-04-01T11:05:25;9.05;;;1.75;;
60908;SDS011;46780;48.128;-1.704;2023-04-01T11:14:25;10.43;;;1.95;;
60908;SDS011;46780;48.128;-1.704;2023-04-01T11:23:39;10.73;;;2.05;;
60908;SDS011;46780;48.128;-1.704;2023-04-01T11:26:15;14.13;;;2.08;;
60908;SDS011;46780;48.128;-1.704;2023-04-01T11:29:04;16.23;;;2.28;;
60908;SDS011;46780;48.128;-1.704;2023-04-01T11:31:56;10.27;;;2.05;;
60908;SDS011;46780;48.128;-1.704;2023-04-01T11:34:36;10.73;;;1.97;;
60908;SDS011;46780;48.128;-1.704;2023-04-01T11:37:29;12.25;;;2.00;;
60908;SDS011;46780;48.128;-1.704;2023-04-01T11:40:08;12.18;;;2.15;;
60908;SDS011;46780;48.128;-1.704;2023-04-01T11:42:44;13.13;;;2.03;;
60908;SDS011;46780;48.128;-1.704;2023-04-01T11:45:20;7.38;;;1.80;;
60908;SDS011;46780;48.128;-1.704;2023-04-01T11:48:07;10.55;;;1.85;;
60908;SDS011;46780;48.128;-1.704;2023-04-01T11:50:46;8.60;;;1.52;;
60908;SDS011;46780;48.128;-1.704;2023-04-01T11:53:31;10.00;;;1.92;;
60908;SDS011;46780;48.128;-1.704;2023-04-01T11:56:19;9.38;;;1.88;;
60908;SDS011;46780;48.128;-1.704;2023-04-01T11:59:01;8.88;;;1.60;;
60908;SDS011;46780;48.128;-1.704;2023-04-01T12:01:42;11.23;;;2.00;;
60908;SDS011;46780;48.128;-1.704;2023-04-01T12:07:27;12.80;;;1.73;;
60908;SDS011;46780;48.128;-1.704;2023-04-01T12:10:17;14.23;;;2.40;;
60908;SDS011;46780;48.128;-1.704;2023-04-01T12:15:19;12.68;;;2.10;;
60908;SDS011;46780;48.128;-1.704;2023-04-01T12:17:53;12.75;;;2.08;;
60908;SDS011;46780;48.128;-1.704;2023-04-01T12:20:36;12.63;;;1.88;;
60908;SDS011;46780;48.128;-1.704;2023-04-01T12:23:15;9.88;;;2.17;;
60908;SDS011;46780;48.128;-1.704;2023-04-01T12:28:59;12.27;;;2.42;;
60908;SDS011;46780;48.128;-1.704;2023-04-01T12:31:35;10.25;;;2.13;;
60908;SDS011;46780;48.128;-1.704;2023-04-01T12:37:12;15.35;;;2.75;;
60908;SDS011;46780;48.128;-1.704;2023-04-01T12:43:07;11.90;;;2.20;;
60908;SDS011;46780;48.128;-1.704;2023-04-01T12:45:49;12.35;;;2.20;;
60908;SDS011;46780;48.128;-1.704;2023-04-01T12:48:32;12.77;;;2.10;;
60908;SDS011;46780;48.128;-1.704;2023-04-01T12:51:22;9.68;;;2.10;;
60908;SDS011;46780;48.128;-1.704;2023-04-01T12:57:29;8.45;;;1.70;;
60908;SDS011;46780;48.128;-1.704;2023-04-01T13:00:11;8.50;;;1.70;;
60908;SDS011;46780;48.128;-1.704;2023-04-01T13:02:55;9.23;;;1.70;;
60908;SDS011;46780;48.128;-1.704;2023-04-01T13:05:45;11.15;;;1.85;;
60908;SDS011;46780;48.128;-1.704;2023-04-01T13:08:36;9.32;;;1.60;;
60908;SDS011;46780;48.128;-1.704;2023-04-01T13:11:09;11.63;;;2.03;;
60908;SDS011;46780;48.128;-1.704;2023-04-01T13:16:54;11.98;;;2.00;;
60908;SDS011;46780;48.128;-1.704;2023-04-01T13:19:25;12.57;;;2.17;;
60908;SDS011;46780;48.128;-1.704;2023-04-01T13:22:00;14.82;;;2.13;;
60908;SDS011;46780;48.128;-1.704;2023-04-01T13:24:37;15.00;;;2.20;;
60908;SDS011;46780;48.128;-1.704;2023-04-01T13:27:09;14.95;;;2.20;;
60908;SDS011;46780;48.128;-1.704;2023-04-01T13:29:45;15.68;;;2.40;;
60908;SDS011;46780;48.128;-1.704;2023-04-01T13:32:20;14.02;;;2.65;;
60908;SDS011;46780;48.128;-1.704;2023-04-01T13:35:05;15.90;;;2.63;;
60908;SDS011;46780;48.128;-1.704;2023-04-01T13:37:44;17.20;;;2.58;;
60908;SDS011;46780;48.128;-1.704;2023-04-01T13:40:26;11.33;;;2.07;;
60908;SDS011;46780;48.128;-1.704;2023-04-01T13:42:59;16.05;;;2.50;;
60908;SDS011;46780;48.128;-1.704;2023-04-01T13:50:57;16.35;;;2.60;;
60908;SDS011;46780;48.128;-1.704;2023-04-01T13:56:24;10.95;;;1.95;;
60908;SDS011;46780;48.128;-1.704;2023-04-01T13:59:06;11.30;;;2.22;;
60908;SDS011;46780;48.128;-1.704;2023-04-01T14:01:46;12.80;;;2.17;;
60908;SDS011;46780;48.128;-1.704;2023-04-01T14:04:22;12.13;;;2.30;;
60908;SDS011;46780;48.128;-1.704;2023-04-01T14:07:06;10.55;;;2.15;;
60908;SDS011;46780;48.128;-1.704;2023-04-01T14:09:44;13.63;;;2.50;;
60908;SDS011;46780;48.128;-1.704;2023-04-01T14:12:25;14.07;;;2.15;;
60908;SDS011;46780;48.128;-1.704;2023-04-01T14:15:04;12.95;;;2.78;;
60908;SDS011;46780;48.128;-1.704;2023-04-01T14:17:46;11.18;;;2.25;;
60908;SDS011;46780;48.128;-1.704;2023-04-01T14:20:29;14.38;;;2.75;;
60908;SDS011;46780;48.128;-1.704;2023-04-01T14:29:18;15.68;;;2.22;;
60908;SDS011;46780;48.128;-1.704;2023-04-01T14:31:58;17.05;;;2.42;;
60908;SDS011;46780;48.128;-1.704;2023-04-01T14:34:47;14.18;;;2.20;;
60908;SDS011;46780;48.128;-1.704;2023-04-01T14:37:25;14.27;;;2.13;;
60908;SDS011;46780;48.128;-1.704;2023-04-01T14:40:16;12.13;;;2.30;;
60908;SDS011;46780;48.128;-1.704;2023-04-01T14:42:56;15.77;;;2.50;;
60908;SDS011;46780;48.128;-1.704;2023-04-01T14:46:06;15.45;;;2.83;;
60908;SDS011;46780;48.128;-1.704;2023-04-01T14:48:49;14.23;;;2.42;;
60908;SDS011;46780;48.128;-1.704;2023-04-01T14:51:20;16.42;;;2.60;;
60908;SDS011;46780;48.128;-1.704;2023-04-01T14:53:56;15.73;;;2.50;;
60908;SDS011;46780;48.128;-1.704;2023-04-01T14:56:36;19.20;;;2.90;;
60908;SDS011;46780;48.128;-1.704;2023-04-01T14:59:07;18.80;;;2.70;;
60908;SDS011;46780;48.128;-1.704;2023-04-01T15:01:37;15.10;;;2.58;;
60908;SDS011;46780;48.128;-1.704;2023-04-01T15:04:22;14.15;;;2.50;;
60908;SDS011;46780;48.128;-1.704;2023-04-01T15:07:08;18.20;;;3.22;;
60908;SDS011;46780;48.128;-1.704;2023-04-01T15:09:53;18.92;;;3.38;;
60908;SDS011;46780;48.128;-1.704;2023-04-01T15:12:28;19.05;;;2.72;;
60908;SDS011;46780;48.128;-1.704;2023-04-01T15:15:05;13.48;;;2.40;;
60908;SDS011;46780;48.128;-1.704;2023-04-01T15:17:43;14.85;;;2.83;;
60908;SDS011;46780;48.128;-1.704;2023-04-01T15:20:21;14.45;;;2.50;;
60908;SDS011;46780;48.128;-1.704;2023-04-01T15:23:09;14.35;;;2.83;;
60908;SDS011;46780;48.128;-1.704;2023-04-01T15:25:49;16.35;;;2.40;;
60908;SDS011;46780;48.128;-1.704;2023-04-01T15:28:32;15.23;;;2.63;;
60908;SDS011;46780;48.128;-1.704;2023-04-01T15:31:06;11.55;;;2.22;;
60908;SDS011;46780;48.128;-1.704;2023-04-01T15:33:46;14.48;;;2.60;;
60908;SDS011;46780;48.128;-1.704;2023-04-01T15:36:31;12.20;;;2.20;;
60908;SDS011;46780;48.128;-1.704;2023-04-01T15:39:09;16.85;;;2.65;;
60908;SDS011;46780;48.128;-1.704;2023-04-01T15:41:40;13.48;;;2.20;;
60908;SDS011;46780;48.128;-1.704;2023-04-01T15:44:34;17.20;;;2.50;;
60908;SDS011;46780;48.128;-1.704;2023-04-01T15:47:21;14.48;;;2.20;;
60908;SDS011;46780;48.128;-1.704;2023-04-01T15:50:12;13.73;;;2.42;;
60908;SDS011;46780;48.128;-1.704;2023-04-01T15:52:56;14.50;;;2.20;;
60908;SDS011;46780;48.128;-1.704;2023-04-01T15:55:37;16.02;;;2.40;;
60908;SDS011;46780;48.128;-1.704;2023-04-01T15:58:20;10.30;;;1.85;;
60908;SDS011;46780;48.128;-1.704;2023-04-01T16:01:03;13.30;;;2.13;;
60908;SDS011;46780;48.128;-1.704;2023-04-01T16:03:40;12.52;;;2.20;;
60908;SDS011;46780;48.128;-1.704;2023-04-01T16:06:22;11.77;;;2.15;;
60908;SDS011;46780;48.128;-1.704;2023-04-01T16:09:12;11.80;;;2.08;;
60908;SDS011;46780;48.128;-1.704;2023-04-01T16:11:54;16.15;;;2.38;;
60908;SDS011;46780;48.128;-1.704;2023-04-01T16:14:30;15.20;;;2.20;;
60908;SDS011;46780;48.128;-1.704;2023-04-01T16:17:10;14.98;;;2.33;;
60908;SDS011;46780;48.128;-1.704;2023-04-01T16:19:59;13.98;;;2.25;;
60908;SDS011;46780;48.128;-1.704;2023-04-01T16:22:32;12.55;;;1.95;;
60908;SDS011;46780;48.128;-1.704;2023-04-01T16:25:14;10.45;;;2.00;;
60908;SDS011;46780;48.128;-1.704;2023-04-01T16:27:49;14.05;;;2.42;;
60908;SDS011;46780;48.128;-1.704;2023-04-01T16:30:26;12.38;;;2.15;;
60908;SDS011;46780;48.128;-1.704;2023-04-01T16:33:01;11.77;;;1.88;;
60908;SDS011;46780;48.128;-1.704;2023-04-01T16:35:32;12.95;;;2.17;;
60908;SDS011;46780;48.128;-1.704;2023-04-01T16:38:07;14.43;;;2.22;;
60908;SDS011;46780;48.128;-1.704;2023-04-01T16:40:42;10.50;;;2.13;;
60908;SDS011;46780;48.128;-1.704;2023-04-01T16:43:16;14.60;;;2.15;;
60908;SDS011;46780;48.128;-1.704;2023-04-01T16:45:53;10.07;;;2.05;;
60908;SDS011;46780;48.128;-1.704;2023-04-01T16:48:27;13.75;;;2.08;;
60908;SDS011;46780;48.128;-1.704;2023-04-01T16:51:02;13.45;;;2.00;;
60908;SDS011;46780;48.128;-1.704;2023-04-01T16:53:36;12.70;;;2.17;;
60908;SDS011;46780;48.128;-1.704;2023-04-01T16:56:10;15.23;;;2.17;;
60908;SDS011;46780;48.128;-1.704;2023-04-01T16:58:41;12.90;;;1.90;;